createdAt,value
2023-03-26T04:25:18.720Z,0.373
2023-03-26T04:28:47.981Z,0.747
2023-03-26T04:31:36.469Z,1.494
2023-03-26T04:34:14.572Z,1.867
2023-03-26T04:36:52.728Z,3.361
2023-03-26T04:39:36.026Z,7.096
2023-03-26T04:42:29.569Z,12.325
2023-03-26T04:45:07.729Z,16.434
2023-03-26T04:48:01.307Z,16.807
2023-03-26T04:50:44.474Z,23.904
2023-03-26T04:53:17.553Z,39.964
2023-03-26T04:55:47.843Z,53.41
2023-03-26T04:58:31.157Z,70.965
2023-03-26T05:01:19.578Z,159.111
2023-03-26T05:03:52.758Z,180.027
2023-03-26T05:06:41.141Z,233.064
2023-03-26T05:09:24.422Z,172.557
2023-03-26T05:11:57.555Z,242.028
2023-03-26T05:14:30.684Z,377.982
2023-03-26T05:17:13.977Z,403.38
2023-03-26T05:19:47.144Z,436.248
2023-03-26T05:22:20.223Z,357.066
2023-03-26T05:24:53.306Z,442.224
2023-03-26T05:27:26.481Z,651.384
2023-03-26T05:30:09.775Z,908.352
2023-03-26T05:32:48.085Z,1135.44
2023-03-26T05:36:01.921Z,1565.712
2023-03-26T05:38:45.199Z,1721.088
2023-03-26T05:41:28.475Z,2139.408
2023-03-26T05:44:16.909Z,2366.496
2023-03-26T05:47:15.428Z,1995.984
2023-03-26T05:50:39.520Z,2115.504
2023-03-26T05:53:17.763Z,2629.44
2023-03-26T05:56:01.049Z,3537.792
2023-03-26T05:58:34.158Z,3800.736
2023-03-26T06:01:10.791Z,4780.8
2023-03-26T06:03:43.833Z,5043.744
2023-03-26T06:06:27.116Z,6167.232
2023-03-26T06:09:56.322Z,6597.504
2023-03-26T06:12:31.835Z,4995.936
2023-03-26T06:15:10.008Z,4732.992
2023-03-26T06:17:58.372Z,5234.976
2023-03-26T06:20:31.483Z,3394.368
2023-03-26T06:23:19.855Z,3681.216
2023-03-26T06:25:58.153Z,4852.512
2023-03-26T06:28:41.407Z,3298.752
2023-03-26T06:31:29.813Z,2593.584
2023-03-26T06:34:28.357Z,3418.272
2023-03-26T06:37:06.538Z,3657.312
2023-03-26T06:39:59.976Z,3466.08
2023-03-26T06:43:07.225Z,4709.088
2023-03-26T06:45:06.184Z,6047.712
2023-03-26T06:47:54.549Z,7888.32
2023-03-26T06:50:32.742Z,5784.768
2023-03-26T06:53:16.005Z,5474.016
2023-03-26T06:55:59.333Z,7123.392
2023-03-26T06:58:42.584Z,9226.944
2023-03-26T07:01:51.468Z,10469.952
2023-03-26T07:04:39.860Z,9752.832
2023-03-26T07:07:28.209Z,9465.984
2023-03-26T07:10:16.625Z,8462.016
2023-03-26T07:12:54.842Z,9274.752
2023-03-26T07:15:38.419Z,10852.416
2023-03-26T07:18:11.219Z,12812.544
2023-03-26T07:20:54.754Z,13673.088
2023-03-26T07:24:03.264Z,13003.776
2023-03-26T07:26:56.805Z,13195.008
2023-03-26T07:29:34.999Z,14055.552
2023-03-26T07:32:08.115Z,15776.64
2023-03-26T07:34:38.539Z,15681.024
2023-03-26T07:37:32.121Z,16254.72
2023-03-26T07:40:30.654Z,16637.184
2023-03-26T07:43:08.866Z,15872.256
2023-03-26T07:46:32.980Z,16159.104
2023-03-26T07:49:19.095Z,15394.176
2023-03-26T07:52:07.466Z,14820.48
2023-03-26T07:54:50.816Z,15489.792
2023-03-26T07:57:34.121Z,15681.024
2023-03-26T08:00:20.186Z,15298.56
2023-03-26T08:02:53.179Z,16063.488
2023-03-26T08:06:17.260Z,15394.176
2023-03-26T08:09:19.442Z,13864.32
2023-03-26T08:12:04.255Z,15298.56
2023-03-26T08:14:47.569Z,16159.104
2023-03-26T08:17:35.947Z,15011.712
2023-03-26T08:21:15.329Z,15298.56
2023-03-26T08:24:34.338Z,16159.104
2023-03-26T08:27:07.440Z,17784.576
2023-03-26T08:29:55.826Z,18262.656
2023-03-26T08:33:04.648Z,21609.216
2023-03-26T08:36:08.360Z,24190.848
2023-03-26T08:38:41.498Z,21417.984
2023-03-26T08:41:24.810Z,20557.44
2023-03-26T08:43:58.228Z,25433.856
2023-03-26T08:46:36.266Z,23617.152
2023-03-26T08:49:34.866Z,22087.296
2023-03-26T08:52:13.067Z,23043.456
2023-03-26T08:55:01.659Z,21991.68
2023-03-26T08:57:34.413Z,41688.576
2023-03-26T09:00:06.403Z,22756.608
2023-03-26T09:02:45.640Z,21322.368
2023-03-26T09:05:19.950Z,19218.816
2023-03-26T09:07:53.071Z,17975.808
2023-03-26T09:10:31.252Z,18071.424
2023-03-26T09:13:09.477Z,23999.616
2023-03-26T09:16:32.147Z,22278.528
2023-03-26T09:19:29.243Z,18358.272
2023-03-26T09:22:03.955Z,30023.424
2023-03-26T09:25:13.714Z,49337.856
2023-03-26T09:27:57.036Z,52397.568
2023-03-26T09:30:50.539Z,49720.32
2023-03-26T09:34:11.400Z,35760.384
2023-03-26T09:36:49.459Z,40158.72
2023-03-26T09:39:53.183Z,33656.832
2023-03-26T09:42:31.207Z,19218.816
2023-03-26T09:45:04.491Z,32318.208
2023-03-26T09:47:42.397Z,26007.552
2023-03-26T09:51:27.759Z,24860.16
2023-03-26T09:54:25.570Z,27537.408
2023-03-26T09:57:19.138Z,29449.728
2023-03-26T10:01:08.737Z,30214.656
2023-03-26T10:03:46.828Z,30405.888
2023-03-26T10:06:19.969Z,30214.656
2023-03-26T10:09:19.344Z,29449.728
2023-03-26T10:12:01.852Z,29832.192
2023-03-26T10:14:50.218Z,30405.888
2023-03-26T10:18:26.971Z,28111.104
2023-03-26T10:20:53.536Z,30788.352
2023-03-26T10:23:35.781Z,30979.584
2023-03-26T10:26:08.888Z,26007.552
2023-03-26T10:29:07.497Z,27919.872
2023-03-26T10:31:50.782Z,26581.248
2023-03-26T10:34:54.779Z,26581.248
2023-03-26T10:37:58.284Z,33465.6
2023-03-26T10:40:33.398Z,34612.992
2023-03-26T10:43:12.643Z,37863.936
2023-03-26T10:45:46.944Z,33848.064
2023-03-26T10:48:20.096Z,34804.224
2023-03-26T10:51:03.457Z,26581.248
2023-03-26T10:53:34.510Z,32126.976
2023-03-26T10:56:23.045Z,24190.848
2023-03-26T10:58:57.466Z,28111.104
2023-03-26T11:01:56.050Z,28876.032
2023-03-26T11:04:44.398Z,25625.088
2023-03-26T11:07:17.553Z,25051.392
2023-03-26T11:10:00.865Z,25625.088
2023-03-26T11:12:49.222Z,25051.392
2023-03-26T11:15:42.812Z,21896.064
2023-03-26T11:18:21.190Z,19888.128
2023-03-26T11:20:54.338Z,21513.6
2023-03-26T11:24:08.040Z,24668.928
2023-03-26T11:28:02.816Z,24382.08
2023-03-26T11:30:51.333Z,23617.152
2023-03-26T11:34:40.948Z,23617.152
2023-03-26T11:38:05.079Z,23999.616
2023-03-26T11:41:13.890Z,23999.616
2023-03-26T11:43:46.978Z,23330.304
2023-03-26T11:46:25.220Z,21417.984
2023-03-26T11:48:58.337Z,20174.976
2023-03-26T11:51:36.555Z,19792.512
2023-03-26T11:54:25.011Z,18931.968
2023-03-26T11:57:08.486Z,17688.96
2023-03-26T11:59:49.431Z,16159.104
2023-03-26T12:02:24.945Z,13864.32
2023-03-26T12:04:57.853Z,10900.224
2023-03-26T12:07:37.057Z,10087.488
2023-03-26T12:10:15.538Z,10565.568
2023-03-26T12:12:58.554Z,9226.944
2023-03-26T12:15:57.263Z,9274.752
2023-03-26T12:18:40.531Z,8366.4
2023-03-26T12:21:13.592Z,7697.088
2023-03-26T12:24:02.030Z,7744.896
2023-03-26T12:26:35.117Z,10804.608
2023-03-26T12:29:43.897Z,13577.472
2023-03-26T12:32:43.099Z,11234.88
2023-03-26T12:35:26.846Z,5952.096
2023-03-26T12:38:10.132Z,5139.36
2023-03-26T12:40:58.621Z,6932.16
2023-03-26T12:44:45.444Z,8031.744
2023-03-26T12:47:55.893Z,9370.368
2023-03-26T12:49:44.088Z,9848.448
2023-03-26T12:52:22.320Z,10422.144
2023-03-26T12:55:26.013Z,10374.336
2023-03-26T12:58:13.471Z,9418.176
2023-03-26T13:00:42.388Z,7649.28
2023-03-26T13:03:15.562Z,5187.168
2023-03-26T13:06:19.136Z,3633.408
2023-03-26T13:09:18.342Z,3107.52
2023-03-26T13:11:50.797Z,4302.72
2023-03-26T13:14:44.281Z,5617.44
2023-03-26T13:17:17.360Z,6119.424
2023-03-26T13:19:55.550Z,6932.16
2023-03-26T13:22:44.012Z,7888.32
2023-03-26T13:25:17.069Z,8796.672
2023-03-26T13:29:16.841Z,9179.136
2023-03-26T13:33:16.644Z,9131.328
2023-03-26T13:36:25.515Z,8509.824
2023-03-26T13:39:29.153Z,8605.44
2023-03-26T13:43:08.541Z,9131.328
2023-03-26T13:45:41.572Z,9274.752
2023-03-26T13:48:35.068Z,8796.672
2023-03-26T13:51:13.190Z,8222.976
2023-03-26T13:56:49.963Z,7888.32
2023-03-26T13:59:22.952Z,8509.824
2023-03-26T14:01:56.089Z,8987.904
2023-03-26T14:04:29.073Z,10039.68
2023-03-26T14:07:48.020Z,11952
2023-03-26T14:10:56.311Z,9848.448
2023-03-26T14:13:48.214Z,8366.4
2023-03-26T14:18:48.347Z,9035.712
2023-03-26T14:23:48.416Z,8031.744
2023-03-26T14:26:52.149Z,8318.592
2023-03-26T14:30:21.227Z,7219.008
2023-03-26T14:34:21.031Z,7075.584
2023-03-26T14:37:04.277Z,7744.896
2023-03-26T14:39:52.635Z,6836.544
2023-03-26T14:45:54.807Z,7075.584
2023-03-26T14:49:54.551Z,7649.28
2023-03-26T14:53:23.658Z,7123.392
2023-03-26T14:55:56.702Z,6119.424
2023-03-26T14:58:39.963Z,5282.784
2023-03-26T15:01:13.076Z,4685.184
2023-03-26T15:08:01.149Z,4565.664
2023-03-26T15:11:30.211Z,4470.048
2023-03-26T15:14:08.362Z,4278.816
2023-03-26T15:17:42.618Z,4087.584
2023-03-26T15:21:47.476Z,4422.24
2023-03-26T15:25:21.754Z,4804.704
2023-03-26T15:31:34.067Z,4470.048
2023-03-26T15:34:58.115Z,3920.256
2023-03-26T15:38:06.874Z,3920.256
2023-03-26T15:40:56.885Z,5043.744
2023-03-26T15:45:06.671Z,4470.048
2023-03-26T15:47:55.014Z,4326.624
2023-03-26T15:51:46.293Z,4183.2
2023-03-26T15:54:17.866Z,4159.296
2023-03-26T15:58:52.948Z,4350.528
2023-03-26T16:04:33.510Z,4780.8
2023-03-26T16:09:33.657Z,5330.592
2023-03-26T16:19:33.862Z,5043.744
2023-03-26T16:24:33.911Z,4732.992
2023-03-26T16:27:57.013Z,5760.864
2023-03-26T16:30:30.223Z,5952.096
2023-03-26T16:33:03.220Z,4828.608
2023-03-26T16:40:15.487Z,3896.352
2023-03-26T16:43:03.867Z,2952.144
2023-03-26T16:45:59.791Z,2438.208
2023-03-26T16:49:18.893Z,1553.76
2023-03-26T16:53:08.434Z,1087.632
2023-03-26T16:55:46.546Z,1069.704
2023-03-26T16:58:50.194Z,1440.216
2023-03-26T17:03:35.848Z,1165.32
2023-03-26T17:07:35.555Z,1111.536
2023-03-26T17:10:29.034Z,980.064
2023-03-26T17:15:38.738Z,490.032
2023-03-26T17:20:38.815Z,370.512
2023-03-26T17:23:32.342Z,282.366
2023-03-26T17:28:57.141Z,153.135
2023-03-26T17:33:57.251Z,97.857
2023-03-26T17:37:46.928Z,78.808
2023-03-26T17:42:13.107Z,48.181
2023-03-26T17:47:32.497Z,16.807
2023-03-26T17:50:15.783Z,9.711
2023-03-26T17:52:59.543Z,6.349
2023-03-26T17:56:58.934Z,3.361
2023-03-26T18:00:58.825Z,1.494
2023-03-26T18:03:46.924Z,0.747
2023-03-26T18:07:41.481Z,0.373
2023-03-26T18:11:05.535Z,0
